KDGW/DGW METAR and TAF weather

Enter ICAO airport designator
Station Type Date Time Source
KDGW METAR 2018/01/22 19:53 UTC NOAA

KDGW 221953Z AUTO 33011KT 10SM CLR M02/M08 A3002 RMK AO2 SLP227 T10171083


Station Type Date Time Source
KDGW Decoded METAR 2018/01/22 19:53 UTC NOAA

DOUGLAS CONVERSE COUNTY, WY, United States (KDGW) 42-48N 105-23W 1499M
Jan 22, 2018 - 02:53 PM EST / 2018.01.22 1953 UTC
Wind: from the NNW (330 degrees) at 13 MPH (11 KT):0
Visibility: 10 mile(s):0
Sky conditions: clear
Temperature: 28.9 F (-1.7 C)
Windchill: 17 F (-8 C):1
Dew Point: 17.1 F (-8.3 C)
Relative Humidity: 60%
Pressure (altimeter): 30.02 in. Hg (1016 hPa)
ob: KDGW 221953Z AUTO 33011KT 10SM CLR M02/M08 A3002 RMK AO2 SLP227 T10171083
cycle: 20

Station Type Date Time Source
KDGW TAF UTC NOAA

Error!


Example: see airport list